Time;durP1;ratioP1;P1;durP2;ratioP2;P2;SDS_P1;SDS_P2;PMS_P1;PMS_P2;Temp;Humidity;BMP_temperature;BMP_pressure;BME280_temperature;BME280_humidity;BME280_pressure;Samples;Min_cycle;Max_cycle;Signal;HPM_P1;HPM_P2
2023/01/13 00:01:44;;;;;;;2.00;0.47;;;;;;;10.12;98.27;99751.56;4975891;28;20490;-77
2023/01/13 00:04:10;;;;;;;0.75;0.20;;;;;;;10.15;98.05;99736.56;4975877;28;20564;-77
2023/01/13 00:06:35;;;;;;;0.38;0.10;;;;;;;10.14;98.20;99760.31;4974927;28;20038;-77
2023/01/13 00:09:01;;;;;;;0.75;0.30;;;;;;;10.11;98.56;99748.03;4975420;28;20090;-77
2023/01/13 00:11:26;;;;;;;1.35;0.22;;;;;;;10.15;98.77;99746.25;4975178;28;20062;-77
2023/01/13 00:13:52;;;;;;;1.45;0.30;;;;;;;10.14;98.99;99748.03;4975416;28;20043;-77
2023/01/13 00:16:19;;;;;;;1.20;0.30;;;;;;;10.12;99.72;99754.22;4974848;28;20421;-77
2023/01/13 00:18:46;;;;;;;0.50;0.28;;;;;;;10.14;99.85;99752.41;4975625;28;20118;-76
2023/01/13 00:21:14;;;;;;;1.17;0.20;;;;;;;10.16;100.00;99748.84;4975389;28;20023;-77
2023/01/13 00:23:40;;;;;;;1.35;0.40;;;;;;;10.14;100.00;99741.84;4972044;28;20038;-77
2023/01/13 00:26:09;;;;;;;2.80;0.38;;;;;;;10.14;100.00;99740.09;4974617;28;20489;-77
2023/01/13 00:28:36;;;;;;;0.20;0.10;;;;;;;10.05;100.00;99729.69;4975137;28;20034;-77
2023/01/13 00:31:07;;;;;;;2.08;0.40;;;;;;;10.02;100.00;99737.66;4989846;28;20097;-77
2023/01/13 00:33:32;;;;;;;1.08;0.40;;;;;;;9.98;100.00;99730.69;4971906;28;20098;-77
2023/01/13 00:35:59;;;;;;;1.20;0.20;;;;;;;9.98;100.00;99735.97;4974435;28;20034;-77
2023/01/13 00:38:25;;;;;;;1.38;0.30;;;;;;;10.00;100.00;99729.78;4981357;28;20121;-77
2023/01/13 00:41:11;;;;;;;1.67;0.20;;;;;;;10.00;100.00;99724.50;4975599;28;20118;-78
2023/01/13 00:43:37;;;;;;;0.40;0.20;;;;;;;9.93;100.00;99720.25;4972939;28;20053;-77
2023/01/13 00:46:05;;;;;;;1.20;0.10;;;;;;;9.97;100.00;99721.91;4974187;28;20494;-78
2023/01/13 00:48:31;;;;;;;2.22;0.80;;;;;;;9.96;100.00;99722.81;4975953;28;20101;-78
2023/01/13 00:51:01;;;;;;;0.75;0.22;;;;;;;9.95;100.00;99713.16;4974653;28;20042;-78
2023/01/13 00:53:29;;;;;;;1.85;0.50;;;;;;;9.98;100.00;99713.13;4974974;28;20125;-77
2023/01/13 00:56:01;;;;;;;2.75;0.43;;;;;;;9.98;100.00;99712.25;4974014;28;20038;-77
2023/01/13 00:58:27;;;;;;;1.58;0.45;;;;;;;9.91;100.00;99715.91;4970118;28;20674;-78
2023/01/13 01:00:52;;;;;;;1.02;0.10;;;;;;;9.93;100.00;99720.25;4973219;28;20039;-77
2023/01/13 01:03:17;;;;;;;1.40;0.40;;;;;;;9.92;100.00;99707.06;4974746;28;20114;-77
2023/01/13 01:05:43;;;;;;;1.17;0.20;;;;;;;9.95;100.00;99710.53;4973844;28;20045;-77
2023/01/13 01:08:08;;;;;;;0.60;0.17;;;;;;;9.93;100.00;99712.34;4973348;28;20043;-77
2023/01/13 01:10:33;;;;;;;1.00;0.15;;;;;;;9.96;100.00;99714.91;4974165;28;20031;-76
2023/01/13 01:12:59;;;;;;;0.50;0.20;;;;;;;9.87;100.00;99712.41;4991887;23;20089;-77
2023/01/13 01:15:24;;;;;;;0.70;0.17;;;;;;;9.83;100.00;99710.75;4994970;28;20121;-77
2023/01/13 01:17:49;;;;;;;0.15;0.10;;;;;;;9.81;100.00;99717.78;4995290;28;20074;-78
2023/01/13 01:20:15;;;;;;;0.20;0.10;;;;;;;9.82;100.00;99711.63;4995105;28;20045;-77
2023/01/13 01:22:40;;;;;;;1.83;0.40;;;;;;;9.82;100.00;99711.63;4995245;28;20042;-77
2023/01/13 01:25:06;;;;;;;0.70;0.10;;;;;;;9.84;100.00;99712.47;4995104;28;20114;-77
2023/01/13 01:27:32;;;;;;;0.63;0.20;;;;;;;9.82;100.00;99708.97;4994458;28;20113;-77
2023/01/13 01:29:57;;;;;;;0.20;0.10;;;;;;;9.80;100.00;99705.53;4994422;28;20109;-77
2023/01/13 01:32:22;;;;;;;0.38;0.10;;;;;;;9.81;100.00;99710.75;4994989;28;20457;-77
2023/01/13 01:34:50;;;;;;;0.85;0.20;;;;;;;9.78;100.00;99702.03;4994643;28;20519;-77
2023/01/13 01:37:15;;;;;;;0.30;0.10;;;;;;;9.84;100.00;99696.66;4994248;28;20459;-77
2023/01/13 01:39:40;;;;;;;1.17;0.10;;;;;;;9.86;100.00;99703.66;4994655;28;20072;-77
2023/01/13 01:44:57;;;;;;;0.63;0.20;;;;;;;9.85;100.00;99703.66;4994698;28;20042;-78
2023/01/13 01:47:25;;;;;;;0.28;0.05;;;;;;;9.88;100.00;99704.50;4990331;28;20053;-78
2023/01/13 01:49:50;;;;;;;1.17;0.15;;;;;;;9.91;100.00;99706.22;4992958;28;20450;-78
2023/01/13 01:52:22;;;;;;;1.88;0.30;;;;;;;9.93;100.00;99703.53;4994190;28;20068;-77
2023/01/13 01:54:58;;;;;;;0.70;0.10;;;;;;;9.97;100.00;99695.56;4994617;28;20042;-77
2023/01/13 01:57:35;;;;;;;0.38;0.10;;;;;;;9.99;100.00;99687.63;4991130;28;20030;-77
2023/01/13 02:00:01;;;;;;;0.22;0.10;;;;;;;9.96;100.00;99687.69;4993051;28;20031;-78
2023/01/13 02:02:28;;;;;;;1.67;0.20;;;;;;;9.99;100.00;99687.63;4994166;28;20038;-77
2023/01/13 02:04:55;;;;;;;0.80;0.10;;;;;;;10.00;100.00;99682.31;4994518;28;20038;-78
2023/01/13 02:07:25;;;;;;;4.45;0.13;;;;;;;9.99;100.00;99680.59;4991738;28;20056;-75
2023/01/13 02:09:52;;;;;;;0.70;0.30;;;;;;;9.96;100.00;99678.00;4992751;28;20030;-75
2023/01/13 02:12:31;;;;;;;1.50;0.10;;;;;;;9.99;100.00;99674.47;4989285;28;20046;-75
2023/01/13 02:14:58;;;;;;;1.55;0.20;;;;;;;9.98;100.00;99676.22;4992670;28;20767;-75
2023/01/13 02:17:43;;;;;;;1.05;0.20;;;;;;;9.98;99.77;99672.69;4992114;28;20042;-75
2023/01/13 02:20:18;;;;;;;1.63;0.30;;;;;;;9.96;100.00;99662.19;4991306;28;20049;-75
2023/01/13 02:24:52;;;;;;;2.70;0.20;;;;;;;9.90;100.00;99672.81;4989756;28;20093;-75
2023/01/13 02:26:24;;;;;;;1.35;0.47;;;;;;;9.88;99.60;99664.09;4991710;28;20125;-75
2023/01/13 02:32:14;;;;;;;1.25;0.20;;;;;;;9.93;99.06;99653.44;4973157;28;20101;-75
2023/01/13 02:34:49;;;;;;;1.17;0.30;;;;;;;9.93;98.65;99659.63;4992518;28;20096;-75
2023/01/13 02:37:27;;;;;;;1.02;0.20;;;;;;;9.90;98.33;99657.00;4988446;28;20112;-75
2023/01/13 02:40:05;;;;;;;0.47;0.13;;;;;;;9.96;97.67;99649.03;4992353;28;20038;-75
2023/01/13 02:45:32;;;;;;;1.08;0.32;;;;;;;10.02;96.98;99643.63;4990055;28;20034;-75
2023/01/13 02:48:00;;;;;;;0.77;0.30;;;;;;;10.04;95.96;99655.03;4991703;28;20038;-75
2023/01/13 02:50:36;;;;;;;0.10;0.10;;;;;;;10.12;95.90;99646.13;4988193;28;20045;-75
2023/01/13 02:53:09;;;;;;;0.68;0.30;;;;;;;10.09;95.62;99649.66;4992195;28;20045;-75
2023/01/13 02:55:41;;;;;;;0.77;0.20;;;;;;;10.15;95.54;99631.09;4987522;28;20076;-75
2023/01/13 02:58:10;;;;;;;0.30;0.08;;;;;;;10.19;95.07;99637.16;4992070;28;20463;-75
2023/01/13 03:00:36;;;;;;;5.15;0.45;;;;;;;10.16;94.92;99635.44;4991662;28;20481;-75
2023/01/13 03:03:02;;;;;;;1.73;0.40;;;;;;;10.22;94.60;99634.50;4992165;28;20038;-75
2023/01/13 03:05:29;;;;;;;0.45;0.20;;;;;;;10.27;94.52;99636.19;4990273;28;20073;-75
2023/01/13 03:08:03;;;;;;;0.43;0.20;;;;;;;10.30;94.19;99644.03;4991745;28;20117;-75
2023/01/13 03:10:39;;;;;;;0.38;0.10;;;;;;;10.34;92.96;99636.91;4991710;28;20488;-75
2023/01/13 03:13:19;;;;;;;0.63;0.10;;;;;;;10.37;93.12;99634.22;4987834;28;20500;-75
2023/01/13 03:16:09;;;;;;;0.90;0.10;;;;;;;10.38;92.94;99633.31;4991165;28;20473;-75
2023/01/13 03:18:49;;;;;;;0.90;0.10;;;;;;;10.46;93.03;99644.59;4990645;28;20092;-75
2023/01/13 03:21:39;;;;;;;0.73;0.10;;;;;;;10.45;92.07;99639.34;4990658;28;20100;-75
2023/01/13 03:24:29;;;;;;;1.88;0.32;;;;;;;10.46;93.02;99641.94;4990523;28;20523;-74
2023/01/13 03:27:13;;;;;;;2.22;0.38;;;;;;;10.45;92.51;99642.88;4989884;28;20038;-75
2023/01/13 03:29:45;;;;;;;0.40;0.17;;;;;;;10.44;92.60;99634.97;4989743;28;20519;-75
2023/01/13 03:32:51;;;;;;;0.35;0.10;;;;;;;10.41;92.33;99635.91;4991673;28;20085;-75
2023/01/13 03:35:23;;;;;;;0.73;0.20;;;;;;;10.43;92.28;99644.66;4991013;28;20506;-75
2023/01/13 03:37:55;;;;;;;0.30;0.10;;;;;;;10.44;92.57;99633.19;4990030;28;20397;-75
2023/01/13 03:40:26;;;;;;;0.65;0.20;;;;;;;10.44;92.88;99638.47;4988629;28;20038;-75
2023/01/13 03:45:50;;;;;;;0.90;0.20;;;;;;;10.43;92.72;99642.03;4989937;28;20689;-75
2023/01/13 03:48:21;;;;;;;1.90;0.40;;;;;;;10.46;92.83;99636.69;4989039;28;20117;-78
2023/01/13 03:50:50;;;;;;;2.10;0.15;;;;;;;10.39;93.12;99640.31;4984573;28;20057;-77
2023/01/13 03:53:21;;;;;;;0.70;0.20;;;;;;;10.39;92.83;99635.06;4991808;28;20088;-75
2023/01/13 03:55:52;;;;;;;2.90;0.20;;;;;;;10.42;92.81;99639.41;4982336;28;20711;-75
2023/01/13 03:58:23;;;;;;;0.85;0.10;;;;;;;10.48;92.94;99634.88;4991329;28;20551;-76
2023/01/13 04:01:06;;;;;;;1.52;0.20;;;;;;;10.47;93.26;99641.03;4991394;28;20092;-75
2023/01/13 04:04:02;;;;;;;2.15;0.35;;;;;;;10.51;92.92;99639.22;4989717;28;20045;-75
2023/01/13 04:06:46;;;;;;;2.00;0.43;;;;;;;10.55;92.96;99625.06;4989892;28;20045;-75
2023/01/13 04:09:23;;;;;;;0.68;0.10;;;;;;;10.52;92.88;99630.41;4989633;28;20049;-76
2023/01/13 04:12:01;;;;;;;1.35;0.15;;;;;;;10.51;92.48;99637.47;4988099;28;20046;-75
2023/01/13 04:14:27;;;;;;;1.63;0.22;;;;;;;10.52;92.80;99636.53;4994829;28;20038;-75
2023/01/13 04:16:54;;;;;;;0.63;0.20;;;;;;;10.54;92.64;99644.44;4994268;28;20038;-76
2023/01/13 04:19:20;;;;;;;1.00;0.15;;;;;;;10.57;92.61;99632.97;4994930;28;20034;-76
2023/01/13 04:21:45;;;;;;;0.45;0.10;;;;;;;10.56;92.19;99632.09;4995688;28;20097;-77
2023/01/13 04:24:11;;;;;;;0.40;0.20;;;;;;;10.58;92.34;99629.41;4995310;28;20613;-75
2023/01/13 04:26:36;;;;;;;2.28;0.22;;;;;;;10.58;92.29;99629.41;4994238;28;20378;-75
2023/01/13 04:29:01;;;;;;;0.77;0.17;;;;;;;10.59;92.00;99636.44;4994877;28;20049;-75
2023/01/13 04:31:27;;;;;;;0.57;0.10;;;;;;;10.62;92.23;99637.22;4994480;28;20038;-75
2023/01/13 04:33:52;;;;;;;3.40;0.35;;;;;;;10.62;92.12;99639.88;4994131;28;20061;-76
2023/01/13 04:36:18;;;;;;;2.13;0.50;;;;;;;10.62;92.45;99645.16;4993794;28;20035;-76
2023/01/13 04:38:44;;;;;;;0.80;0.28;;;;;;;10.63;92.43;99628.41;4984547;28;20038;-75
2023/01/13 04:41:09;;;;;;;0.22;0.10;;;;;;;10.65;92.25;99636.31;4993482;28;20037;-76
2023/01/13 04:43:34;;;;;;;0.20;0.10;;;;;;;10.69;91.92;99632.72;4994757;28;20374;-75
2023/01/13 04:46:00;;;;;;;1.15;0.20;;;;;;;10.63;92.22;99635.47;4992381;28;20038;-75
2023/01/13 04:48:25;;;;;;;0.90;0.43;;;;;;;10.56;92.27;99641.75;4993960;28;20042;-75
2023/01/13 04:50:50;;;;;;;0.88;0.10;;;;;;;10.59;92.47;99642.59;4994147;28;20142;-76
2023/01/13 04:53:16;;;;;;;1.15;0.30;;;;;;;10.55;92.30;99640.03;4994194;28;20070;-76
2023/01/13 04:55:43;;;;;;;0.85;0.10;;;;;;;10.56;92.67;99631.19;4992392;28;20038;-76
2023/01/13 04:58:09;;;;;;;0.98;0.30;;;;;;;10.63;92.00;99638.09;4994342;28;20517;-76
2023/01/13 05:00:35;;;;;;;0.38;0.20;;;;;;;10.65;91.56;99646.84;4993771;28;20045;-74
2023/01/13 05:03:01;;;;;;;0.77;0.20;;;;;;;10.65;91.46;99642.44;4990224;28;20117;-75
2023/01/13 05:05:28;;;;;;;0.30;0.00;;;;;;;10.72;91.51;99640.56;4992973;28;20470;-75
2023/01/13 05:07:53;;;;;;;0.77;0.20;;;;;;;10.74;92.06;99636.09;4992935;28;20493;-75
2023/01/13 05:10:19;;;;;;;1.15;0.20;;;;;;;10.69;92.01;99638.00;4993368;28;20056;-75
2023/01/13 05:18:26;;;;;;;1.55;0.10;;;;;;;10.67;92.83;99648.56;4993057;28;20038;-75
2023/01/13 05:20:51;;;;;;;0.43;0.20;;;;;;;10.64;92.51;99637.22;4992732;28;20068;-75
2023/01/13 05:26:01;;;;;;;2.30;0.30;;;;;;;10.61;93.01;99634.63;4992623;28;20069;-76
2023/01/13 05:28:31;;;;;;;0.20;0.10;;;;;;;10.65;93.04;99636.31;4993857;28;20065;-75
2023/01/13 05:30:56;;;;;;;0.63;0.20;;;;;;;10.60;93.13;99632.88;4993927;28;20069;-74
2023/01/13 05:33:21;;;;;;;0.85;0.20;;;;;;;10.55;93.55;99625.06;4993596;28;20446;-74
2023/01/13 05:35:47;;;;;;;0.38;0.00;;;;;;;10.50;93.80;99626.91;4992252;28;20034;-74
2023/01/13 05:38:14;;;;;;;0.35;0.10;;;;;;;10.50;93.81;99638.34;4992795;28;20022;-74
2023/01/13 05:43:25;;;;;;;0.55;0.10;;;;;;;10.39;93.94;99627.13;4992476;28;20413;-74
2023/01/13 05:46:02;;;;;;;2.45;0.20;;;;;;;10.37;94.32;99621.00;4992844;28;20027;-75
2023/01/13 05:48:33;;;;;;;0.00;0.00;;;;;;;10.37;94.48;99625.44;4998669;28;20026;-75
2023/01/13 05:50:59;;;;;;;0.75;0.10;;;;;;;10.35;94.97;99636.03;4996005;28;20022;-75
2023/01/13 05:53:25;;;;;;;1.15;0.28;;;;;;;10.34;94.55;99629.00;4992582;28;20030;-75
2023/01/13 05:55:51;;;;;;;1.45;0.47;;;;;;;10.31;94.54;99635.19;4991970;28;20046;-74
2023/01/13 05:58:18;;;;;;;1.58;0.38;;;;;;;10.34;94.63;99639.53;4992537;28;20588;-75
2023/01/13 06:00:44;;;;;;;3.05;1.08;;;;;;;10.33;94.51;99645.72;4974564;28;20026;-75
2023/01/13 06:03:10;;;;;;;1.23;0.55;;;;;;;10.40;94.06;99641.19;4990754;28;20382;-74
2023/01/13 06:05:36;;;;;;;1.23;0.40;;;;;;;10.40;94.02;99643.81;4992064;28;20042;-74
2023/01/13 06:08:04;;;;;;;1.65;0.50;;;;;;;10.38;94.30;99653.56;4990035;28;20046;-74
2023/01/13 06:10:29;;;;;;;0.10;0.10;;;;;;;10.27;94.85;99644.09;4987868;28;20026;-74
2023/01/13 06:12:54;;;;;;;2.33;0.28;;;;;;;10.28;94.83;99653.72;4991899;28;20030;-74
2023/01/13 06:15:21;;;;;;;1.33;0.32;;;;;;;10.23;94.91;99645.00;4992414;28;20085;-74
2023/01/13 06:17:47;;;;;;;1.23;0.28;;;;;;;10.09;95.91;99652.31;4992109;28;20042;-75
2023/01/13 06:20:13;;;;;;;0.98;0.30;;;;;;;10.07;96.08;99649.69;4992435;28;20041;-74
2023/01/13 06:22:42;;;;;;;2.28;0.43;;;;;;;10.02;96.50;99659.44;4992658;28;20080;-74
2023/01/13 06:25:15;;;;;;;0.77;0.30;;;;;;;10.00;96.39;99657.72;4992627;28;20522;-74
2023/01/13 06:27:41;;;;;;;1.63;0.40;;;;;;;10.01;96.92;99654.22;4988145;28;20130;-74
2023/01/13 06:30:07;;;;;;;5.20;0.50;;;;;;;10.01;96.46;99662.13;4992067;28;20109;-74
2023/01/13 06:32:37;;;;;;;0.75;0.30;;;;;;;9.92;97.05;99657.88;4992412;28;20030;-74
2023/01/13 06:35:08;;;;;;;1.77;0.40;;;;;;;9.93;97.57;99651.72;4992486;28;20124;-74
2023/01/13 06:37:34;;;;;;;1.38;0.30;;;;;;;9.98;96.92;99652.50;4990930;28;20041;-74
2023/01/13 06:40:02;;;;;;;0.90;0.20;;;;;;;10.02;96.86;99656.81;4991074;28;20037;-74
2023/01/13 06:45:15;;;;;;;0.57;0.10;;;;;;;9.99;97.10;99664.78;4991415;28;20045;-74
2023/01/13 06:47:42;;;;;;;1.05;0.40;;;;;;;9.99;97.21;99672.69;4991659;28;20022;-74
2023/01/13 06:50:08;;;;;;;1.98;0.73;;;;;;;10.04;96.67;99668.19;4991952;28;20036;-74
2023/01/13 06:52:33;;;;;;;1.90;0.63;;;;;;;10.10;96.47;99654.91;4991869;28;20034;-74
2023/01/13 06:54:58;;;;;;;1.63;0.50;;;;;;;10.13;96.44;99648.69;4992055;28;20389;-74
2023/01/13 06:57:24;;;;;;;2.70;0.60;;;;;;;10.11;95.96;99655.75;4991169;28;20714;-74
2023/01/13 06:59:49;;;;;;;2.42;0.50;;;;;;;10.05;96.67;99655.88;4991947;28;20042;-74
2023/01/13 07:02:15;;;;;;;0.35;0.17;;;;;;;10.02;96.79;99643.63;4991886;28;20035;-74
2023/01/13 07:04:40;;;;;;;1.98;0.47;;;;;;;9.98;97.18;99651.59;4991913;28;20089;-74
2023/01/13 07:07:07;;;;;;;0.85;0.22;;;;;;;9.93;97.13;99649.09;4989993;28;20124;-74
2023/01/13 07:09:32;;;;;;;0.45;0.10;;;;;;;9.99;96.95;99651.59;4991833;28;20137;-74
2023/01/13 07:11:58;;;;;;;1.23;0.28;;;;;;;9.97;96.85;99648.09;4990688;28;20117;-74
2023/01/13 07:17:07;;;;;;;0.52;0.10;;;;;;;9.91;97.62;99650.88;4985889;23;20051;-78
2023/01/13 07:19:32;;;;;;;0.28;0.10;;;;;;;9.97;97.81;99644.59;4964160;28;20054;-77
2023/01/13 07:21:58;;;;;;;0.32;0.20;;;;;;;10.00;97.74;99650.69;4967312;28;20051;-77
2023/01/13 07:24:23;;;;;;;1.02;0.30;;;;;;;10.09;97.27;99642.63;4964751;28;20042;-77
2023/01/13 07:26:49;;;;;;;0.00;0.00;;;;;;;10.17;96.38;99639.00;4965890;28;20043;-77
2023/01/13 07:29:15;;;;;;;1.20;0.20;;;;;;;10.21;95.94;99640.66;4960564;28;20039;-77
2023/01/13 07:31:40;;;;;;;6.70;0.43;;;;;;;10.25;95.55;99637.06;4962162;28;20038;-77
2023/01/13 07:34:06;;;;;;;1.45;0.22;;;;;;;10.24;95.90;99637.94;4964575;28;20031;-77
2023/01/13 07:36:31;;;;;;;0.38;0.20;;;;;;;10.22;95.84;99629.22;4964786;28;20122;-77
2023/01/13 07:38:57;;;;;;;0.00;0.00;;;;;;;10.18;96.13;99632.81;4964741;28;20127;-77
2023/01/13 07:44:09;;;;;;;0.65;0.10;;;;;;;10.25;95.57;99632.66;4962927;28;20073;-77
2023/01/13 07:46:35;;;;;;;0.60;0.15;;;;;;;10.32;95.74;99636.06;4965446;28;20502;-77
2023/01/13 07:49:01;;;;;;;0.70;0.10;;;;;;;10.39;95.01;99639.47;4973062;28;20045;-77
2023/01/13 07:51:26;;;;;;;0.57;0.20;;;;;;;10.48;94.81;99645.44;4969709;28;20028;-77
2023/01/13 07:53:51;;;;;;;0.70;0.10;;;;;;;10.54;94.37;99644.44;4969474;28;20114;-77
2023/01/13 07:56:18;;;;;;;0.73;0.20;;;;;;;10.57;93.58;99643.50;4967072;28;20073;-77
2023/01/13 07:58:49;;;;;;;1.50;0.22;;;;;;;10.63;93.51;99648.66;4968840;28;20074;-77
2023/01/13 08:01:15;;;;;;;1.38;0.20;;;;;;;10.68;93.23;99647.66;4967685;28;20042;-77
2023/01/13 08:03:41;;;;;;;0.10;0.00;;;;;;;10.71;92.19;99642.31;4968502;28;20031;-77
2023/01/13 08:06:08;;;;;;;0.45;0.10;;;;;;;10.79;92.52;99652.69;4968584;28;20458;-78
2023/01/13 08:08:33;;;;;;;1.58;0.35;;;;;;;10.80;92.61;99646.53;4969103;28;20043;-77
2023/01/13 08:11:00;;;;;;;0.30;0.15;;;;;;;10.86;92.02;99651.69;4965101;28;20027;-77
2023/01/13 08:13:26;;;;;;;0.32;0.17;;;;;;;10.89;91.88;99658.66;4969179;28;20043;-77
2023/01/13 08:15:57;;;;;;;0.40;0.13;;;;;;;10.87;91.71;99650.78;4965718;28;20038;-77
2023/01/13 08:18:22;;;;;;;0.55;0.10;;;;;;;10.93;91.96;99658.56;4967930;28;20422;-77
2023/01/13 08:20:51;;;;;;;2.75;0.20;;;;;;;10.94;91.60;99668.22;4968053;28;20035;-77
2023/01/13 08:23:16;;;;;;;0.15;0.08;;;;;;;10.94;91.68;99701.69;4966291;28;20039;-76
2023/01/13 08:25:41;;;;;;;0.63;0.20;;;;;;;10.48;100.00;99734.28;4969401;28;20113;-77
2023/01/13 08:28:07;;;;;;;1.02;0.15;;;;;;;9.57;100.00;99741.00;4967999;28;20494;-78
2023/01/13 08:30:32;;;;;;;0.30;0.10;;;;;;;9.10;100.00;99744.28;4971087;28;20475;-78
2023/01/13 08:32:57;;;;;;;0.50;0.20;;;;;;;8.84;100.00;99744.59;4968365;28;20405;-78
2023/01/13 08:35:23;;;;;;;0.25;0.10;;;;;;;8.69;100.00;99778.06;4972026;28;20031;-78
2023/01/13 08:37:51;;;;;;;0.57;0.30;;;;;;;8.51;100.00;99780.88;4961303;28;20027;-78
2023/01/13 08:40:17;;;;;;;0.57;0.15;;;;;;;8.35;100.00;99778.34;4963476;28;20074;-78
2023/01/13 08:42:43;;;;;;;0.52;0.20;;;;;;;8.25;100.00;99795.13;4983139;28;20389;-78
2023/01/13 08:45:09;;;;;;;0.05;0.00;;;;;;;8.17;100.00;99782.91;4962388;28;20035;-78
2023/01/13 08:47:35;;;;;;;0.10;0.00;;;;;;;8.08;100.00;99781.25;4965241;28;20027;-79
2023/01/13 08:50:00;;;;;;;0.00;0.00;;;;;;;8.08;100.00;99774.22;4965026;28;20034;-79
2023/01/13 08:52:26;;;;;;;1.92;0.10;;;;;;;8.02;100.00;99800.56;4966807;28;20041;-79
2023/01/13 08:54:51;;;;;;;0.00;0.00;;;;;;;8.02;100.00;99791.81;4966590;28;20504;-79
2023/01/13 08:57:18;;;;;;;0.52;0.10;;;;;;;8.06;100.00;99783.00;4967864;28;20072;-79
2023/01/13 08:59:44;;;;;;;0.00;0.00;;;;;;;8.04;100.00;99779.50;4967928;28;20470;-79
2023/01/13 09:02:18;;;;;;;0.00;0.00;;;;;;;8.09;100.00;99789.09;4970476;28;20043;-79
2023/01/13 09:04:45;;;;;;;0.00;0.00;;;;;;;8.08;100.00;99768.97;4982639;28;20116;-78
2023/01/13 09:07:10;;;;;;;2.28;0.65;;;;;;;8.10;100.00;99779.47;4965649;28;20094;-79
2023/01/13 09:09:36;;;;;;;0.68;0.30;;;;;;;8.21;100.00;99779.41;4965904;28;20458;-78
2023/01/13 09:14:45;;;;;;;0.55;0.20;;;;;;;8.40;100.00;99764.34;4964154;28;20046;-79
2023/01/13 09:17:10;;;;;;;0.22;0.15;;;;;;;8.56;100.00;99748.38;4964652;28;20042;-79
2023/01/13 09:19:36;;;;;;;2.00;0.40;;;;;;;8.67;100.00;99743.03;4966781;28;20035;-79
2023/01/13 09:22:02;;;;;;;0.55;0.17;;;;;;;8.73;100.00;99744.72;4983879;28;20027;-79
2023/01/13 09:24:27;;;;;;;3.42;0.50;;;;;;;8.79;100.00;99739.38;4972539;28;20457;-79
2023/01/13 09:26:53;;;;;;;1.73;0.45;;;;;;;8.82;100.00;99741.09;4965469;28;20057;-79
2023/01/13 09:29:19;;;;;;;1.00;0.10;;;;;;;8.82;100.00;99726.19;4969573;28;20038;-79
2023/01/13 09:31:45;;;;;;;0.20;0.10;;;;;;;8.85;100.00;99776.13;4967191;28;20035;-79
2023/01/13 09:37:00;;;;;;;1.20;0.20;;;;;;;8.77;100.00;99823.56;4965055;28;20035;-79
2023/01/13 09:39:25;;;;;;;0.98;0.30;;;;;;;8.85;100.00;99820.88;4968539;28;20107;-79
2023/01/13 09:45:03;;;;;;;0.55;0.20;;;;;;;8.76;100.00;99807.81;4965630;28;20035;-79
2023/01/13 09:47:39;;;;;;;1.17;0.40;;;;;;;8.78;100.00;99800.81;4966147;28;20118;-79
2023/01/13 09:50:14;;;;;;;0.45;0.10;;;;;;;8.78;100.00;99804.28;4963580;28;20035;-79
2023/01/13 09:52:42;;;;;;;0.70;0.40;;;;;;;8.74;100.00;99805.19;4965072;28;20490;-79
2023/01/13 09:55:15;;;;;;;4.80;1.42;;;;;;;8.72;100.00;99809.63;4961278;28;20042;-79
2023/01/13 09:57:41;;;;;;;6.47;0.50;;;;;;;8.69;100.00;99812.25;4968106;28;20039;-79
2023/01/13 10:00:12;;;;;;;1.35;0.20;;;;;;;8.70;100.00;99806.13;4967133;28;20390;-80
2023/01/13 10:03:09;;;;;;;2.75;0.47;;;;;;;8.74;100.00;99812.22;4965306;28;20498;-79
2023/01/13 10:05:41;;;;;;;2.45;0.20;;;;;;;8.68;100.00;99807.91;4960080;28;20027;-79
2023/01/13 10:08:10;;;;;;;;;;;;;;;8.73;100.00;99805.22;4962744;28;20045;-79
2023/01/13 10:10:44;;;;;;;0.70;0.15;;;;;;;8.85;100.00;99796.31;4967919;28;19940;-79
2023/01/13 10:13:20;;;;;;;0.70;0.28;;;;;;;8.89;100.00;99800.69;4967267;28;20490;-79
2023/01/13 10:15:54;;;;;;;0.38;0.20;;;;;;;8.82;100.00;99793.72;4961076;28;20528;-79
2023/01/13 10:18:34;;;;;;;1.88;0.50;;;;;;;8.82;100.00;99789.34;4962526;28;20418;-79
2023/01/13 10:21:15;;;;;;;0.35;0.10;;;;;;;8.84;100.00;99771.78;4959507;28;20027;-79
2023/01/13 10:23:58;;;;;;;1.73;0.70;;;;;;;8.93;100.00;99762.91;4983371;28;20039;-79
2023/01/13 10:26:40;;;;;;;1.40;0.40;;;;;;;9.06;100.00;99755.72;4965287;28;20027;-79
2023/01/13 10:29:19;;;;;;;0.30;0.10;;;;;;;9.14;100.00;99736.34;4961830;28;20106;-79
2023/01/13 10:31:45;;;;;;;0.40;0.20;;;;;;;9.10;100.00;99747.78;4965421;28;20114;-79
2023/01/13 10:34:10;;;;;;;0.57;0.20;;;;;;;9.10;100.00;99760.06;4967605;28;20126;-79
2023/01/13 10:36:36;;;;;;;1.35;0.38;;;;;;;9.07;100.00;99745.19;4965016;28;20461;-79
2023/01/13 10:39:13;;;;;;;0.98;0.20;;;;;;;9.05;100.00;99743.47;4966419;28;20035;-79
2023/01/13 10:41:38;;;;;;;0.52;0.20;;;;;;;8.97;100.00;99738.31;4963054;28;20052;-79
2023/01/13 10:44:13;;;;;;;1.80;0.28;;;;;;;8.81;100.00;99728.84;4964196;28;20043;-78
2023/01/13 10:46:58;;;;;;;2.08;0.20;;;;;;;8.74;100.00;99722.78;4965639;28;20035;-79
2023/01/13 10:49:27;;;;;;;2.97;0.45;;;;;;;8.77;100.00;99720.09;4963573;28;20051;-79
2023/01/13 10:51:53;;;;;;;0.73;0.15;;;;;;;8.68;100.00;99710.56;4964586;28;20031;-79
2023/01/13 10:54:21;;;;;;;0.77;0.20;;;;;;;8.72;100.00;99677.19;4967633;28;20707;-79
2023/01/13 10:56:47;;;;;;;1.92;0.30;;;;;;;8.76;100.00;99700.81;4957069;28;20046;-79
2023/01/13 10:59:21;;;;;;;0.63;0.20;;;;;;;8.71;100.00;99710.53;4965794;28;20498;-79
2023/01/13 11:02:28;;;;;;;0.22;0.10;;;;;;;8.90;100.00;99707.69;4966441;28;20038;-78
2023/01/13 11:05:01;;;;;;;0.73;0.20;;;;;;;9.07;100.00;99710.97;4968793;28;20078;-79
2023/01/13 11:07:37;;;;;;;0.98;0.35;;;;;;;9.21;100.00;99719.53;4966094;28;20041;-79
2023/01/13 11:10:08;;;;;;;0.77;0.40;;;;;;;9.22;100.00;99733.56;4964884;28;20027;-79
2023/01/13 11:12:44;;;;;;;0.20;0.20;;;;;;;9.18;100.00;99739.78;4964465;28;20046;-79
2023/01/13 11:15:18;;;;;;;0.30;0.30;;;;;;;9.07;100.00;99750.47;4961406;28;20043;-79
2023/01/13 11:17:59;;;;;;;0.30;0.30;;;;;;;8.94;100.00;99746.25;4964053;28;20093;-79
2023/01/13 11:20:32;;;;;;;0.30;0.30;;;;;;;8.75;100.00;99750.81;4972077;28;20065;-81
2023/01/13 11:23:02;;;;;;;0.30;0.30;;;;;;;8.63;100.00;99762.34;4984405;28;20089;-80
2023/01/13 11:25:43;;;;;;;0.30;0.30;;;;;;;8.61;100.00;99769.38;4966006;28;20038;-80
2023/01/13 11:28:30;;;;;;;0.30;0.30;;;;;;;8.55;100.00;99759.81;4983914;28;20030;-79
2023/01/13 11:31:04;;;;;;;0.30;0.30;;;;;;;8.56;100.00;99768.56;4967536;28;20035;-79
2023/01/13 11:33:37;;;;;;;0.30;0.30;;;;;;;8.60;100.00;99761.53;4961143;28;20047;-78
2023/01/13 11:36:17;;;;;;;0.30;0.30;;;;;;;8.62;100.00;99765.88;4960839;28;20035;-79
2023/01/13 11:38:49;;;;;;;0.35;0.35;;;;;;;8.69;100.00;99772.81;4961569;28;20050;-78
2023/01/13 11:41:43;;;;;;;0.30;0.30;;;;;;;8.88;100.00;99777.88;4962234;28;20035;-78
2023/01/13 11:44:14;;;;;;;0.30;0.30;;;;;;;8.91;100.00;99767.34;4962425;28;20402;-79
2023/01/13 11:46:40;;;;;;;0.50;0.50;;;;;;;8.92;100.00;99762.03;4958906;28;20034;-79
2023/01/13 11:49:07;;;;;;;0.30;0.30;;;;;;;9.04;100.00;99761.03;4965167;28;20042;-78
2023/01/13 11:51:47;;;;;;;0.40;0.40;;;;;;;9.13;100.00;99762.66;4980801;28;20401;-77
2023/01/13 11:54:38;;;;;;;0.60;0.60;;;;;;;9.25;100.00;99766.88;4958888;28;20455;-78
2023/01/13 11:57:38;;;;;;;0.40;0.40;;;;;;;9.35;99.47;99774.69;4958908;28;20067;-79
2023/01/13 12:00:10;;;;;;;0.30;0.30;;;;;;;9.30;100.00;99775.59;4937110;28;20051;-78
2023/01/13 12:03:08;;;;;;;0.40;0.40;;;;;;;9.25;97.78;99772.16;4963728;28;20100;-78
2023/01/13 12:05:39;;;;;;;0.40;0.40;;;;;;;9.24;98.11;99767.78;4956505;28;20041;-78
2023/01/13 12:08:19;;;;;;;0.30;0.30;;;;;;;9.13;97.96;99762.66;4967740;28;20035;-78
2023/01/13 12:11:30;;;;;;;0.30;0.30;;;;;;;9.06;96.63;99764.50;4949961;28;20047;-79
2023/01/13 12:14:01;;;;;;;0.40;0.40;;;;;;;9.10;95.98;99763.56;4958829;28;20043;-78
2023/01/13 12:16:31;;;;;;;0.40;0.40;;;;;;;9.18;94.69;99739.78;4946241;28;20518;-79
2023/01/13 12:19:23;;;;;;;0.30;0.30;;;;;;;9.28;94.62;99756.34;4966053;28;20061;-79
2023/01/13 12:22:15;;;;;;;0.40;0.40;;;;;;;9.41;93.17;99750.00;4947327;28;20054;-78
2023/01/13 12:24:56;;;;;;;0.40;0.40;;;;;;;9.53;93.09;99757.72;4964113;28;20071;-78
2023/01/13 12:27:46;;;;;;;0.40;0.40;;;;;;;9.54;91.59;99751.59;4963502;28;20170;-78
2023/01/13 12:30:38;;;;;;;0.38;0.38;;;;;;;9.56;90.75;99756.81;4973958;28;20035;-78